Orbital elements of COSMOS 2251 DEB
| Launched | 15 June 1993 |
| Flight ended | – |
| Launch site | Plesetsk Missile and Space Complex, Russia |
| Owner | Commonwealth of Independent States (former USSR) |
| NORAD ID | 33894 |
| Date fetched |
Epoch osculation |
Inc. [°] |
Ecc. | RA asc node [hr] |
Arg Peri. [°] |
Mean anom [°] |
Mean motion [rev/day] |
Abs. mag |
| Date fetched |
Epoch osculation |
Inc. [°] |
Ecc. | RA asc node [hr] |
Arg Peri. [°] |
Mean anom [°] |
Mean motion [rev/day] |
Abs. mag |
| 2026 May 03 17:57 | 2026 Apr 30 08:53:18 | 73.7630 | 0.05701 | 8.9715 | 34.0476 | 329.5848 | 13.21609 | – |
| 2026 May 02 17:57 | 2026 Apr 30 08:53:18 | 73.7630 | 0.05701 | 8.9715 | 34.0476 | 329.5848 | 13.21609 | – |
| 2026 May 01 17:56 | 2026 Apr 30 08:53:18 | 73.7630 | 0.05701 | 8.9715 | 34.0476 | 329.5848 | 13.21609 | – |
| 2026 Apr 30 17:56 | 2026 Apr 30 08:53:18 | 73.7630 | 0.05701 | 8.9715 | 34.0476 | 329.5848 | 13.21609 | – |
| 2026 Apr 29 17:57 | 2026 Apr 24 11:11:47 | 73.7635 | 0.05700 | 9.5806 | 44.0348 | 329.5848 | 13.21609 | – |
| 2026 Apr 28 17:56 | 2026 Apr 24 11:11:47 | 73.7635 | 0.05700 | 9.5806 | 44.0348 | 329.5848 | 13.21609 | – |
| 2026 Apr 27 17:58 | 2026 Apr 24 11:11:47 | 73.7635 | 0.05700 | 9.5806 | 44.0348 | 329.5848 | 13.21609 | – |
| 2026 Apr 26 17:58 | 2026 Apr 24 11:11:47 | 73.7635 | 0.05700 | 9.5806 | 44.0348 | 329.5848 | 13.21609 | – |
| 2026 Apr 25 17:58 | 2026 Apr 24 11:11:47 | 73.7635 | 0.05700 | 9.5806 | 44.0348 | 329.5848 | 13.21609 | – |
| 2026 Apr 24 17:59 | 2026 Apr 24 11:11:47 | 73.7635 | 0.05700 | 9.5806 | 44.0348 | 329.5848 | 13.21609 | – |
| 2026 Apr 23 17:57 | 2026 Apr 19 02:13:08 | 73.7642 | 0.05699 | 10.1350 | 53.1307 | 329.5848 | 13.21609 | – |
| 2026 Apr 22 17:57 | 2026 Apr 19 02:13:08 | 73.7642 | 0.05699 | 10.1350 | 53.1307 | 329.5848 | 13.21609 | – |
| 2026 Apr 21 17:57 | 2026 Apr 19 02:13:08 | 73.7642 | 0.05699 | 10.1350 | 53.1307 | 329.5848 | 13.21609 | – |
| 2026 Apr 20 17:57 | 2026 Apr 19 02:13:08 | 73.7642 | 0.05699 | 10.1350 | 53.1307 | 329.5848 | 13.21609 | – |
| 2026 Apr 19 17:58 | 2026 Apr 19 02:13:08 | 73.7642 | 0.05699 | 10.1350 | 53.1307 | 329.5848 | 13.21609 | – |
| 2026 Apr 18 17:56 | 2026 Apr 13 02:42:26 | 73.7650 | 0.05698 | 10.7518 | 63.2566 | 329.5848 | 13.21609 | – |
| 2026 Apr 16 17:57 | 2026 Apr 13 02:42:26 | 73.7650 | 0.05698 | 10.7518 | 63.2566 | 329.5848 | 13.21609 | – |
| 2026 Apr 14 17:57 | 2026 Apr 13 02:42:26 | 73.7650 | 0.05698 | 10.7518 | 63.2566 | 329.5848 | 13.21609 | – |
| 2026 Apr 13 17:57 | 2026 Apr 13 02:42:26 | 73.7650 | 0.05698 | 10.7518 | 63.2566 | 329.5848 | 13.21609 | – |
| 2026 Apr 12 17:57 | 2026 Apr 08 13:42:37 | 73.7658 | 0.05698 | 11.2203 | 70.9523 | 329.5848 | 13.21609 | – |
| 2026 Apr 11 17:57 | 2026 Apr 08 13:42:37 | 73.7658 | 0.05698 | 11.2203 | 70.9523 | 329.5848 | 13.21609 | – |
| 2026 Apr 10 17:58 | 2026 Apr 08 13:42:37 | 73.7658 | 0.05698 | 11.2203 | 70.9523 | 329.5848 | 13.21609 | – |
| 2026 Apr 09 18:01 | 2026 Apr 08 13:42:37 | 73.7658 | 0.05698 | 11.2203 | 70.9523 | 329.5848 | 13.21609 | – |
| 2026 Apr 08 17:57 | 2026 Apr 08 13:42:37 | 73.7658 | 0.05698 | 11.2203 | 70.9523 | 329.5848 | 13.21609 | – |
| 2026 Apr 07 17:57 | 2026 Apr 02 06:55:46 | 73.7662 | 0.05700 | 11.8683 | 81.6021 | 329.5848 | 13.21609 | – |
| 2026 Apr 06 17:57 | 2026 Apr 02 06:55:46 | 73.7662 | 0.05700 | 11.8683 | 81.6021 | 329.5848 | 13.21609 | – |